createdAt,value
2023-05-10T00:00:27.760Z,25.00
2023-05-10T00:01:27.816Z,25.00
2023-05-10T00:02:27.947Z,25.00
2023-05-10T00:03:28.026Z,1.00
2023-05-10T00:04:27.981Z,0.00
2023-05-10T00:05:28.032Z,0.00
2023-05-10T00:06:28.094Z,0.00
2023-05-10T00:07:28.121Z,0.00
2023-05-10T00:08:28.148Z,0.00
2023-05-10T00:09:28.166Z,10.51
2023-05-10T00:10:28.215Z,21.34
2023-05-10T00:11:28.225Z,27.19
2023-05-10T00:12:28.253Z,27.70
2023-05-10T00:13:28.357Z,25.96
2023-05-10T00:14:28.264Z,23.51
2023-05-10T00:15:28.278Z,28.33
2023-05-10T00:16:28.368Z,33.06
2023-05-10T00:17:28.329Z,28.02
2023-05-10T00:18:28.301Z,26.07
2023-05-10T00:19:28.303Z,26.03
2023-05-10T00:20:28.304Z,34.52
2023-05-10T00:21:28.307Z,27.30
2023-05-10T00:22:28.319Z,27.84
2023-05-10T00:23:28.690Z,26.78
2023-05-10T00:24:28.675Z,29.92
2023-05-10T00:25:28.714Z,25.00
2023-05-10T00:26:28.331Z,28.90
2023-05-10T00:27:28.334Z,28.79
2023-05-10T00:28:28.346Z,29.60
2023-05-10T00:29:28.364Z,28.51
2023-05-10T00:30:28.345Z,26.69
2023-05-10T00:31:28.374Z,25.74
2023-05-10T00:32:28.370Z,36.95
2023-05-10T00:33:28.359Z,33.72
2023-05-10T00:34:28.382Z,29.17
2023-05-10T00:35:28.380Z,26.27
2023-05-10T00:36:28.361Z,28.78
2023-05-10T00:37:28.379Z,29.43
2023-05-10T00:38:28.784Z,35.19
2023-05-10T00:39:28.381Z,32.09
2023-05-10T00:40:28.389Z,33.35
2023-05-10T00:41:28.396Z,32.75
2023-05-10T00:42:28.398Z,29.56
2023-05-10T00:43:28.407Z,25.00
2023-05-10T00:44:28.411Z,25.92
2023-05-10T00:45:28.431Z,31.50
2023-05-10T00:46:28.534Z,32.63
2023-05-10T00:47:28.416Z,36.27
2023-05-10T00:48:28.424Z,27.11
2023-05-10T00:49:28.428Z,29.87
2023-05-10T00:50:28.542Z,33.13
2023-05-10T00:51:28.438Z,25.67
2023-05-10T00:52:28.431Z,27.45
2023-05-10T00:53:28.448Z,35.82
2023-05-10T00:54:28.450Z,33.48
2023-05-10T00:55:28.443Z,35.14
2023-05-10T00:56:28.451Z,37.39
2023-05-10T00:57:28.442Z,34.27
2023-05-10T00:58:28.459Z,30.52
2023-05-10T00:59:28.449Z,28.33
2023-05-10T01:00:28.446Z,31.12
2023-05-10T01:01:28.517Z,31.51
2023-05-10T01:02:28.536Z,33.19
2023-05-10T01:03:28.499Z,28.85
2023-05-10T01:04:28.465Z,23.57
2023-05-10T01:05:28.494Z,30.46
2023-05-10T01:06:28.463Z,27.06
2023-05-10T01:07:28.464Z,34.94
2023-05-10T01:08:28.472Z,37.12
2023-05-10T01:09:28.492Z,32.60
2023-05-10T01:10:28.485Z,33.30
2023-05-10T01:11:28.497Z,27.68
2023-05-10T01:12:28.550Z,31.82
2023-05-10T01:13:28.549Z,39.98
2023-05-10T01:14:28.507Z,41.00
2023-05-10T01:15:28.513Z,38.79
2023-05-10T01:16:28.573Z,40.09
2023-05-10T01:17:28.577Z,36.62
2023-05-10T01:18:28.525Z,33.94
2023-05-10T01:19:28.541Z,33.36
2023-05-10T01:20:28.532Z,31.78
2023-05-10T01:21:28.549Z,32.54
2023-05-10T01:22:28.546Z,34.62
2023-05-10T01:23:28.547Z,31.76
2023-05-10T01:24:28.604Z,38.67
2023-05-10T01:25:28.560Z,36.24
2023-05-10T01:26:28.576Z,38.08
2023-05-10T01:27:28.598Z,36.00
2023-05-10T01:28:28.592Z,37.70
2023-05-10T01:29:28.590Z,31.26
2023-05-10T01:30:28.602Z,36.93
2023-05-10T01:31:28.630Z,30.05
2023-05-10T01:32:28.638Z,38.85
2023-05-10T01:33:28.629Z,36.87
2023-05-10T01:34:28.612Z,43.77
2023-05-10T01:35:28.625Z,39.92
2023-05-10T01:36:28.631Z,34.13
2023-05-10T01:37:28.618Z,34.20
2023-05-10T01:38:28.797Z,34.00
2023-05-10T01:39:28.638Z,33.23
2023-05-10T01:40:28.648Z,39.47
2023-05-10T01:41:28.671Z,40.58
2023-05-10T01:42:28.667Z,35.98
2023-05-10T01:43:28.676Z,36.85
2023-05-10T01:44:28.691Z,38.85
2023-05-10T01:45:28.685Z,30.87
2023-05-10T01:46:28.776Z,33.68
2023-05-10T01:47:28.736Z,37.00
2023-05-10T01:48:28.765Z,32.16
2023-05-10T01:49:28.798Z,33.49
2023-05-10T01:50:28.764Z,38.52
2023-05-10T01:51:28.746Z,34.33
2023-05-10T01:52:28.753Z,33.91
2023-05-10T01:53:28.811Z,37.04
2023-05-10T01:54:28.761Z,32.95
2023-05-10T01:55:28.770Z,37.35
2023-05-10T01:56:28.783Z,35.97
2023-05-10T01:57:28.832Z,36.38
2023-05-10T01:58:28.761Z,36.39
2023-05-10T01:59:28.777Z,38.35
2023-05-10T02:00:28.815Z,33.59
2023-05-10T02:01:28.808Z,34.05
2023-05-10T02:02:28.849Z,39.34
2023-05-10T02:03:28.820Z,33.87
2023-05-10T02:04:28.804Z,40.96
2023-05-10T02:05:28.838Z,36.21
2023-05-10T02:06:28.803Z,36.48
2023-05-10T02:07:28.806Z,39.64
2023-05-10T02:08:28.812Z,29.72
2023-05-10T02:09:28.829Z,33.78
2023-05-10T02:10:28.833Z,38.39
2023-05-10T02:11:28.829Z,36.23
2023-05-10T02:12:28.909Z,35.73
2023-05-10T02:13:28.920Z,33.61
2023-05-10T02:14:28.878Z,38.31
2023-05-10T02:15:28.884Z,34.10
2023-05-10T02:16:28.906Z,30.78
2023-05-10T02:17:28.950Z,37.48
2023-05-10T02:18:28.909Z,36.25
2023-05-10T02:19:28.928Z,35.19
2023-05-10T02:20:28.949Z,36.51
2023-05-10T02:21:28.972Z,34.65
2023-05-10T02:22:28.948Z,37.34
2023-05-10T02:23:28.955Z,33.55
2023-05-10T02:24:28.960Z,33.41
2023-05-10T02:25:28.971Z,34.98
2023-05-10T02:26:28.978Z,31.99
2023-05-10T02:27:28.994Z,33.06
2023-05-10T02:28:28.994Z,33.89
2023-05-10T02:29:28.997Z,38.68
2023-05-10T02:30:29.014Z,29.11
2023-05-10T02:31:29.053Z,33.17
2023-05-10T02:32:29.055Z,34.64
2023-05-10T02:33:29.047Z,36.26
2023-05-10T02:34:29.056Z,35.96
2023-05-10T02:35:29.047Z,33.01
2023-05-10T02:36:29.055Z,33.42
2023-05-10T02:37:29.093Z,30.90
2023-05-10T02:38:29.102Z,31.09
2023-05-10T02:39:29.098Z,32.87
2023-05-10T02:40:29.116Z,33.09
2023-05-10T02:41:29.112Z,27.57
2023-05-10T02:42:29.132Z,29.12
2023-05-10T02:43:29.139Z,34.42
2023-05-10T02:44:29.153Z,33.97
2023-05-10T02:45:29.165Z,33.88
2023-05-10T02:46:29.201Z,36.89
2023-05-10T02:47:29.248Z,31.45
2023-05-10T02:48:29.200Z,35.28
2023-05-10T02:49:29.209Z,37.57
2023-05-10T02:50:29.212Z,30.77
2023-05-10T02:51:29.235Z,33.85
2023-05-10T02:52:29.235Z,30.60
2023-05-10T02:53:29.300Z,33.34
2023-05-10T02:54:29.258Z,34.03
2023-05-10T02:55:29.273Z,32.18
2023-05-10T02:56:29.286Z,36.19
2023-05-10T02:57:29.281Z,32.86
2023-05-10T02:58:29.290Z,33.47
2023-05-10T02:59:29.307Z,38.34
2023-05-10T03:00:29.312Z,29.78
2023-05-10T03:01:29.394Z,33.50
2023-05-10T03:02:29.355Z,33.23
2023-05-10T03:03:29.342Z,35.79
2023-05-10T03:04:29.412Z,37.44
2023-05-10T03:05:29.392Z,35.19
2023-05-10T03:06:29.375Z,31.77
2023-05-10T03:07:29.387Z,30.83
2023-05-10T03:08:29.453Z,38.85
2023-05-10T03:09:29.443Z,36.05
2023-05-10T03:10:29.436Z,33.93
2023-05-10T03:11:29.441Z,35.24
2023-05-10T03:12:29.452Z,30.23
2023-05-10T03:13:29.592Z,36.67
2023-05-10T03:14:29.470Z,36.65
2023-05-10T03:15:29.495Z,33.37
2023-05-10T03:16:29.569Z,34.53
2023-05-10T03:17:29.555Z,35.00
2023-05-10T03:18:29.520Z,28.51
2023-05-10T03:19:29.541Z,32.80
2023-05-10T03:20:29.531Z,31.30
2023-05-10T03:21:29.533Z,34.03
2023-05-10T03:22:29.544Z,33.72
2023-05-10T03:23:29.553Z,33.44
2023-05-10T03:24:29.563Z,34.15
2023-05-10T03:25:29.601Z,35.88
2023-05-10T03:26:29.587Z,32.86
2023-05-10T03:27:29.597Z,37.64
2023-05-10T03:28:29.600Z,33.95
2023-05-10T03:29:29.604Z,36.23
2023-05-10T03:30:29.614Z,35.26
2023-05-10T03:31:29.651Z,36.89
2023-05-10T03:32:29.655Z,31.22
2023-05-10T03:33:29.649Z,34.46
2023-05-10T03:34:29.665Z,35.46
2023-05-10T03:35:29.666Z,35.06
2023-05-10T03:36:29.682Z,37.89
2023-05-10T03:37:29.691Z,34.84
2023-05-10T03:38:30.612Z,33.34
2023-05-10T03:39:29.743Z,35.15
2023-05-10T03:40:29.744Z,35.03
2023-05-10T03:41:29.780Z,34.82
2023-05-10T03:42:29.759Z,35.28
2023-05-10T03:43:29.769Z,34.61
2023-05-10T03:44:29.811Z,31.74
2023-05-10T03:45:29.802Z,37.00
2023-05-10T03:46:29.833Z,37.35
2023-05-10T03:47:29.852Z,38.28
2023-05-10T03:48:30.183Z,32.89
2023-05-10T03:49:30.170Z,38.89
2023-05-10T03:50:30.161Z,32.47
2023-05-10T03:51:30.133Z,37.58
2023-05-10T03:52:30.122Z,31.88
2023-05-10T03:53:30.106Z,31.01
2023-05-10T03:54:30.097Z,36.28
2023-05-10T03:55:30.074Z,34.93
2023-05-10T03:56:30.064Z,38.08
2023-05-10T03:57:30.093Z,32.27
2023-05-10T03:58:30.032Z,36.88
2023-05-10T03:59:30.021Z,35.15
2023-05-10T04:00:29.999Z,37.52
2023-05-10T04:01:30.016Z,38.67
2023-05-10T04:02:30.102Z,37.35
2023-05-10T04:03:30.109Z,37.71
2023-05-10T04:04:30.054Z,33.62
2023-05-10T04:05:30.067Z,34.70
2023-05-10T04:06:30.131Z,35.51
2023-05-10T04:07:30.103Z,34.63
2023-05-10T04:08:30.126Z,31.37
2023-05-10T04:09:30.136Z,30.39
2023-05-10T04:10:30.161Z,35.56
2023-05-10T04:11:30.170Z,33.16
2023-05-10T04:12:30.184Z,35.20
2023-05-10T04:13:30.263Z,36.91
2023-05-10T04:14:30.204Z,34.29
2023-05-10T04:15:30.234Z,32.29
2023-05-10T04:16:30.296Z,35.22
2023-05-10T04:17:30.348Z,35.78
2023-05-10T04:18:30.270Z,34.29
2023-05-10T04:19:30.294Z,38.42
2023-05-10T04:20:30.302Z,37.01
2023-05-10T04:21:30.323Z,33.81
2023-05-10T04:22:30.334Z,37.89
2023-05-10T04:23:30.346Z,34.35
2023-05-10T04:24:30.368Z,35.94
2023-05-10T04:25:30.386Z,31.22
2023-05-10T04:26:30.415Z,32.58
2023-05-10T04:27:30.408Z,33.33
2023-05-10T04:28:30.413Z,31.58
2023-05-10T04:29:30.457Z,32.94
2023-05-10T04:30:30.526Z,34.37
2023-05-10T04:31:30.838Z,35.41
2023-05-10T04:32:30.935Z,33.95
2023-05-10T04:33:30.865Z,35.65
2023-05-10T04:34:30.878Z,34.91
2023-05-10T04:35:30.882Z,33.76
2023-05-10T04:36:30.875Z,34.40
2023-05-10T04:37:30.882Z,34.40
2023-05-10T04:38:30.878Z,34.09
2023-05-10T04:39:30.882Z,30.60
2023-05-10T04:40:30.876Z,33.89
2023-05-10T04:41:30.874Z,36.48
2023-05-10T04:42:30.877Z,36.84
2023-05-10T04:43:30.871Z,34.04
2023-05-10T04:44:30.884Z,35.97
2023-05-10T04:45:30.903Z,29.05
2023-05-10T04:46:30.911Z,30.33
2023-05-10T04:47:30.914Z,34.81
2023-05-10T04:48:30.877Z,34.40
2023-05-10T04:49:30.903Z,32.96
2023-05-10T04:50:30.899Z,32.98
2023-05-10T04:51:30.909Z,33.59
2023-05-10T04:52:31.787Z,34.72
2023-05-10T04:53:30.903Z,33.16
2023-05-10T04:54:30.909Z,33.26
2023-05-10T04:55:30.909Z,32.27
2023-05-10T04:56:30.794Z,32.68
2023-05-10T04:57:30.816Z,29.04
2023-05-10T04:58:30.837Z,29.29
2023-05-10T04:59:30.848Z,34.24
2023-05-10T05:00:30.864Z,32.88
2023-05-10T05:01:30.936Z,34.84
2023-05-10T05:02:31.045Z,31.53
2023-05-10T05:03:31.025Z,31.20
2023-05-10T05:04:30.920Z,35.99
2023-05-10T05:05:30.927Z,35.02
2023-05-10T05:06:30.940Z,33.46
2023-05-10T05:07:30.964Z,32.09
2023-05-10T05:08:30.985Z,26.72
2023-05-10T05:09:31.005Z,35.89
2023-05-10T05:10:31.017Z,33.61
2023-05-10T05:11:31.017Z,34.22
2023-05-10T05:12:31.031Z,36.40
2023-05-10T05:13:31.089Z,33.97
2023-05-10T05:14:31.068Z,33.74
2023-05-10T05:15:31.081Z,33.04
2023-05-10T05:16:31.196Z,31.11
2023-05-10T05:17:31.188Z,30.71
2023-05-10T05:18:31.132Z,34.88
2023-05-10T05:19:31.378Z,27.63
2023-05-10T05:20:31.183Z,34.69
2023-05-10T05:21:31.185Z,33.00
2023-05-10T05:22:31.276Z,31.51
2023-05-10T05:23:31.216Z,31.10
2023-05-10T05:24:31.229Z,29.99
2023-05-10T05:25:31.245Z,33.81
2023-05-10T05:26:31.270Z,30.26
2023-05-10T05:27:31.280Z,31.30
2023-05-10T05:28:31.289Z,31.97
2023-05-10T05:29:31.304Z,26.15
2023-05-10T05:30:31.331Z,33.64
2023-05-10T05:31:31.484Z,32.78
2023-05-10T05:32:31.375Z,33.72
2023-05-10T05:33:31.372Z,32.43
2023-05-10T05:34:31.386Z,32.06
2023-05-10T05:35:31.388Z,31.85
2023-05-10T05:36:31.391Z,33.64
2023-05-10T05:37:31.399Z,28.62
2023-05-10T05:38:31.430Z,36.54
2023-05-10T05:39:31.447Z,33.91
2023-05-10T05:40:31.451Z,31.71
2023-05-10T05:41:31.478Z,29.41
2023-05-10T05:42:31.512Z,32.99
2023-05-10T05:43:31.504Z,34.35
2023-05-10T05:44:31.905Z,30.96
2023-05-10T05:45:31.561Z,29.48
2023-05-10T05:46:31.524Z,31.82
2023-05-10T05:47:31.714Z,32.82
2023-05-10T05:48:31.605Z,31.92
2023-05-10T05:49:32.995Z,30.50
2023-05-10T05:50:31.882Z,33.55
2023-05-10T05:51:31.601Z,33.76
2023-05-10T05:52:31.615Z,33.24
2023-05-10T05:53:31.655Z,32.73
2023-05-10T05:54:31.888Z,35.93
2023-05-10T05:55:31.665Z,34.63
2023-05-10T05:56:31.690Z,34.36
2023-05-10T05:57:31.679Z,32.66
2023-05-10T05:58:31.901Z,29.31
2023-05-10T05:59:31.893Z,32.54
2023-05-10T06:00:31.728Z,34.18
2023-05-10T06:01:31.741Z,35.67
2023-05-10T06:02:31.835Z,31.21
2023-05-10T06:03:31.886Z,33.38
2023-05-10T06:04:35.159Z,31.02
2023-05-10T06:05:31.749Z,31.34
2023-05-10T06:06:31.749Z,31.62
2023-05-10T06:07:31.891Z,33.07
2023-05-10T06:08:31.729Z,29.11
2023-05-10T06:09:31.726Z,35.00
2023-05-10T06:10:31.730Z,32.85
2023-05-10T06:11:31.699Z,34.40
2023-05-10T06:12:31.889Z,34.67
2023-05-10T06:13:31.745Z,33.59
2023-05-10T06:14:31.988Z,31.01
2023-05-10T06:15:31.943Z,29.53
2023-05-10T06:16:32.015Z,34.88
2023-05-10T06:17:32.071Z,34.02
2023-05-10T06:18:31.947Z,31.49
2023-05-10T06:19:31.944Z,34.71
2023-05-10T06:20:32.543Z,34.40
2023-05-10T06:21:31.944Z,33.95
2023-05-10T06:22:31.949Z,34.08
2023-05-10T06:23:31.943Z,28.31
2023-05-10T06:24:32.423Z,33.38
2023-05-10T06:25:31.968Z,32.54
2023-05-10T06:26:31.611Z,31.29
2023-05-10T06:27:31.622Z,30.13
2023-05-10T06:28:31.628Z,29.05
2023-05-10T06:29:31.901Z,30.18
2023-05-10T06:30:31.952Z,29.12
2023-05-10T06:31:31.964Z,32.96
2023-05-10T06:32:31.976Z,33.88
2023-05-10T06:33:31.946Z,33.39
2023-05-10T06:34:32.405Z,35.59
2023-05-10T06:35:31.984Z,35.12
2023-05-10T06:36:32.001Z,36.77
2023-05-10T06:37:31.945Z,30.10
2023-05-10T06:38:32.399Z,36.13
2023-05-10T06:39:32.005Z,37.03
2023-05-10T06:40:32.012Z,38.61
2023-05-10T06:41:31.962Z,36.70
2023-05-10T06:42:31.950Z,39.05
2023-05-10T06:43:32.405Z,38.18
2023-05-10T06:44:32.436Z,39.36
2023-05-10T06:45:31.971Z,37.37
2023-05-10T06:46:32.006Z,41.20
2023-05-10T06:47:32.017Z,40.44
2023-05-10T06:48:31.915Z,43.32
2023-05-10T06:49:32.408Z,44.57
2023-05-10T06:50:32.410Z,43.91
2023-05-10T06:51:31.954Z,40.86
2023-05-10T06:52:32.015Z,43.13
2023-05-10T06:53:32.975Z,44.82
2023-05-10T06:54:32.415Z,43.63
2023-05-10T06:55:39.468Z,45.31
2023-05-10T06:56:32.020Z,45.69
2023-05-10T06:57:32.402Z,47.50
2023-05-10T06:58:32.446Z,50.95
2023-05-10T06:59:32.058Z,48.68
2023-05-10T07:00:32.122Z,56.33
2023-05-10T07:01:32.020Z,51.16
2023-05-10T07:02:32.010Z,55.75
2023-05-10T07:03:31.958Z,57.63
2023-05-10T07:04:32.496Z,50.94
2023-05-10T07:05:31.954Z,51.10
2023-05-10T07:06:33.988Z,55.90
2023-05-10T07:07:31.932Z,56.04
2023-05-10T07:08:31.953Z,56.38
2023-05-10T07:09:31.964Z,55.53
2023-05-10T07:10:31.927Z,58.79
2023-05-10T07:11:31.900Z,56.03
2023-05-10T07:12:31.940Z,62.66
2023-05-10T07:13:31.921Z,63.54
2023-05-10T07:14:31.885Z,65.53
2023-05-10T07:15:31.892Z,56.64
2023-05-10T07:16:31.995Z,64.36
2023-05-10T07:17:32.047Z,62.31
2023-05-10T07:18:31.949Z,61.53
2023-05-10T07:19:31.849Z,65.92
2023-05-10T07:20:31.849Z,60.26
2023-05-10T07:21:32.887Z,63.77
2023-05-10T07:22:38.796Z,67.44
2023-05-10T07:23:31.816Z,67.95
2023-05-10T07:24:31.845Z,68.46
2023-05-10T07:25:31.807Z,69.38
2023-05-10T07:26:31.931Z,68.11
2023-05-10T07:27:31.903Z,65.30
2023-05-10T07:28:31.798Z,64.92
2023-05-10T07:29:31.966Z,67.87
2023-05-10T07:30:31.819Z,68.79
2023-05-10T07:31:31.827Z,71.65
2023-05-10T07:32:31.987Z,74.19
2023-05-10T07:33:31.752Z,78.53
2023-05-10T07:34:31.752Z,77.35
2023-05-10T07:35:31.972Z,77.95
2023-05-10T07:36:31.741Z,78.05
2023-05-10T07:37:31.750Z,69.74
2023-05-10T07:38:31.720Z,79.26
2023-05-10T07:39:32.702Z,83.02
2023-05-10T07:40:32.090Z,79.87
2023-05-10T07:41:33.900Z,97.64
2023-05-10T07:42:31.727Z,111.20
2023-05-10T07:43:32.042Z,118.92
2023-05-10T07:44:32.479Z,123.38
2023-05-10T07:45:39.414Z,130.20
2023-05-10T07:46:31.736Z,130.51
2023-05-10T07:47:35.166Z,132.04
2023-05-10T07:48:34.859Z,130.92
2023-05-10T07:49:31.970Z,130.81
2023-05-10T07:50:32.007Z,132.93
2023-05-10T07:51:31.651Z,136.92
2023-05-10T07:52:31.625Z,141.46
2023-05-10T07:53:31.633Z,152.75
2023-05-10T07:54:31.999Z,163.95
2023-05-10T07:55:31.585Z,167.14
2023-05-10T07:56:31.620Z,167.83
2023-05-10T07:57:32.569Z,179.02
2023-05-10T07:58:31.575Z,178.26
2023-05-10T07:59:35.177Z,190.71
2023-05-10T08:00:31.591Z,191.04
2023-05-10T08:01:31.941Z,191.63
2023-05-10T08:02:31.612Z,195.13
2023-05-10T08:03:31.615Z,202.21
2023-05-10T08:04:31.577Z,218.43
2023-05-10T08:05:33.125Z,216.87
2023-05-10T08:06:32.094Z,217.26
2023-05-10T08:07:31.507Z,218.39
2023-05-10T08:08:31.533Z,223.28
2023-05-10T08:09:31.489Z,230.91
2023-05-10T08:10:31.945Z,240.26
2023-05-10T08:11:32.798Z,241.47
2023-05-10T08:12:31.500Z,243.98
2023-05-10T08:13:31.465Z,240.76
2023-05-10T08:14:31.462Z,248.24
2023-05-10T08:15:31.445Z,245.86
2023-05-10T08:16:31.538Z,246.51
2023-05-10T08:17:31.507Z,244.40
2023-05-10T08:18:31.441Z,247.53
2023-05-10T08:19:31.419Z,246.58
2023-05-10T08:20:31.415Z,246.07
2023-05-10T08:21:31.411Z,246.92
2023-05-10T08:22:31.399Z,249.18
2023-05-10T08:23:31.388Z,250.12
2023-05-10T08:24:31.395Z,250.00
2023-05-10T08:25:31.452Z,243.49
2023-05-10T08:26:31.376Z,248.35
2023-05-10T08:27:31.366Z,250.00
2023-05-10T08:28:31.392Z,248.04
2023-05-10T08:29:42.336Z,247.69
2023-05-10T08:30:31.348Z,247.86
2023-05-10T08:31:31.427Z,249.40
2023-05-10T08:32:31.338Z,253.27
2023-05-10T08:33:31.514Z,253.51
2023-05-10T08:34:31.322Z,259.76
2023-05-10T08:35:31.492Z,248.75
2023-05-10T08:36:31.311Z,246.34
2023-05-10T08:37:31.308Z,247.98
2023-05-10T08:38:31.293Z,245.18
2023-05-10T08:39:31.311Z,241.29
2023-05-10T08:40:31.638Z,236.68
2023-05-10T08:41:31.510Z,241.53
2023-05-10T08:42:31.291Z,248.36
2023-05-10T08:43:31.489Z,245.36
2023-05-10T08:44:49.448Z,243.25
2023-05-10T08:45:31.526Z,243.59
2023-05-10T08:46:31.357Z,245.68
2023-05-10T08:47:31.351Z,244.00
2023-05-10T08:48:31.227Z,225.83
2023-05-10T08:49:31.243Z,229.78
2023-05-10T08:50:31.472Z,228.84
2023-05-10T08:51:31.212Z,233.61
2023-05-10T08:52:31.697Z,238.74
2023-05-10T08:53:31.188Z,238.33
2023-05-10T08:54:31.200Z,238.93
2023-05-10T08:55:31.460Z,236.84
2023-05-10T08:56:31.214Z,235.42
2023-05-10T08:57:31.191Z,235.06
2023-05-10T08:58:31.482Z,234.60
2023-05-10T08:59:31.190Z,235.16
2023-05-10T09:00:31.243Z,235.29
2023-05-10T09:01:31.195Z,231.89
2023-05-10T09:02:31.164Z,233.95
2023-05-10T09:03:31.137Z,229.39
2023-05-10T09:04:31.218Z,227.99
2023-05-10T09:05:31.322Z,227.16
2023-05-10T09:06:31.113Z,227.67
2023-05-10T09:07:31.104Z,230.33
2023-05-10T09:08:31.091Z,226.02
2023-05-10T09:09:31.486Z,223.28
2023-05-10T09:10:31.206Z,219.41
2023-05-10T09:11:34.492Z,224.24
2023-05-10T09:12:31.207Z,224.49
2023-05-10T09:13:31.197Z,224.74
2023-05-10T09:14:31.207Z,222.27
2023-05-10T09:15:31.483Z,220.65
2023-05-10T09:16:31.228Z,217.88
2023-05-10T09:17:31.204Z,222.98
2023-05-10T09:18:31.183Z,218.86
2023-05-10T09:19:31.153Z,216.72
2023-05-10T09:20:31.475Z,216.86
2023-05-10T09:21:31.148Z,215.00
2023-05-10T09:22:31.137Z,211.49
2023-05-10T09:23:31.119Z,209.70
2023-05-10T09:24:31.111Z,214.05
2023-05-10T09:25:31.484Z,212.55
2023-05-10T09:26:31.139Z,210.92
2023-05-10T09:27:31.102Z,211.27
2023-05-10T09:28:31.111Z,210.66
2023-05-10T09:29:31.483Z,212.35
2023-05-10T09:30:31.084Z,212.58
2023-05-10T09:31:31.123Z,212.34
2023-05-10T09:32:31.121Z,210.18
2023-05-10T09:33:46.652Z,212.08
2023-05-10T09:34:31.534Z,212.39
2023-05-10T09:35:31.489Z,212.42
2023-05-10T09:36:31.067Z,213.09
2023-05-10T09:37:31.042Z,213.65
2023-05-10T09:38:31.477Z,213.45
2023-05-10T09:39:31.029Z,211.14
2023-05-10T09:40:31.014Z,217.35
2023-05-10T09:41:31.017Z,211.04
2023-05-10T09:42:31.008Z,212.10
2023-05-10T09:43:31.069Z,210.58
2023-05-10T09:44:30.986Z,213.30
2023-05-10T09:45:31.502Z,215.30
2023-05-10T09:46:31.033Z,204.71
2023-05-10T09:47:30.999Z,205.75
2023-05-10T09:48:30.988Z,205.59
2023-05-10T09:49:30.993Z,205.85
2023-05-10T09:50:30.952Z,203.44
2023-05-10T09:51:30.940Z,205.15
2023-05-10T09:52:30.977Z,202.00
2023-05-10T09:53:31.485Z,198.14
2023-05-10T09:54:31.116Z,203.81
2023-05-10T09:55:31.153Z,206.88
2023-05-10T09:56:31.503Z,209.70
2023-05-10T09:57:32.355Z,210.79
2023-05-10T09:58:31.219Z,213.29
2023-05-10T09:59:31.248Z,210.38
2023-05-10T10:00:31.489Z,210.80
2023-05-10T10:01:32.243Z,214.25
2023-05-10T10:02:31.255Z,220.17
2023-05-10T10:03:31.191Z,221.64
2023-05-10T10:04:31.291Z,221.96
2023-05-10T10:05:31.543Z,225.10
2023-05-10T10:06:31.172Z,225.31
2023-05-10T10:07:31.159Z,223.54
2023-05-10T10:08:31.184Z,213.93
2023-05-10T10:09:31.167Z,204.56
2023-05-10T10:10:31.500Z,198.04
2023-05-10T10:11:31.194Z,200.74
2023-05-10T10:12:31.256Z,197.90
2023-05-10T10:13:31.291Z,195.92
2023-05-10T10:14:31.367Z,197.00
2023-05-10T10:15:31.511Z,196.49
2023-05-10T10:16:31.494Z,197.34
2023-05-10T10:17:31.512Z,200.26
2023-05-10T10:18:32.026Z,198.32
2023-05-10T10:19:31.616Z,198.98
2023-05-10T10:20:32.038Z,201.46
2023-05-10T10:21:31.724Z,200.47
2023-05-10T10:22:31.792Z,201.21
2023-05-10T10:23:31.836Z,199.12
2023-05-10T10:24:31.934Z,199.88
2023-05-10T10:25:32.066Z,200.02
2023-05-10T10:26:32.057Z,200.15
2023-05-10T10:27:32.107Z,201.25
2023-05-10T10:28:32.146Z,202.97
2023-05-10T10:29:32.198Z,205.13
2023-05-10T10:30:32.532Z,207.80
2023-05-10T10:31:32.334Z,200.91
2023-05-10T10:32:32.416Z,201.37
2023-05-10T10:33:32.506Z,199.60
2023-05-10T10:34:32.617Z,200.67
2023-05-10T10:35:33.044Z,201.21
2023-05-10T10:36:32.602Z,206.37
2023-05-10T10:37:32.615Z,206.42
2023-05-10T10:38:32.659Z,211.09
2023-05-10T10:39:33.117Z,210.92
2023-05-10T10:40:34.902Z,219.04
2023-05-10T10:41:33.006Z,219.83
2023-05-10T10:42:32.765Z,222.69
2023-05-10T10:43:33.207Z,223.51
2023-05-10T10:44:32.711Z,222.97
2023-05-10T10:45:33.099Z,227.54
2023-05-10T10:46:32.738Z,228.15
2023-05-10T10:47:32.727Z,231.05
2023-05-10T10:48:32.686Z,234.56
2023-05-10T10:49:32.683Z,234.43
2023-05-10T10:50:32.687Z,237.19
2023-05-10T10:51:32.670Z,239.69
2023-05-10T10:52:32.760Z,243.32
2023-05-10T10:53:32.686Z,245.39
2023-05-10T10:54:32.660Z,248.51
2023-05-10T10:55:32.639Z,249.13
2023-05-10T10:56:32.633Z,249.19
2023-05-10T10:57:33.014Z,247.76
2023-05-10T10:58:32.622Z,250.00
2023-05-10T10:59:32.609Z,249.89
2023-05-10T11:00:32.620Z,248.90
2023-05-10T11:01:32.641Z,248.68
2023-05-10T11:02:32.615Z,249.16
2023-05-10T11:03:33.262Z,250.00
2023-05-10T11:04:33.089Z,250.03
2023-05-10T11:05:32.597Z,246.49
2023-05-10T11:06:32.561Z,248.77
2023-05-10T11:07:32.560Z,247.86
2023-05-10T11:08:32.583Z,248.58
2023-05-10T11:09:33.049Z,248.07
2023-05-10T11:10:32.544Z,228.09
2023-05-10T11:11:32.532Z,212.62
2023-05-10T11:12:32.574Z,210.83
2023-05-10T11:13:32.511Z,219.42
2023-05-10T11:14:32.507Z,205.39
2023-05-10T11:15:32.510Z,212.21
2023-05-10T11:16:32.539Z,213.22
2023-05-10T11:17:32.570Z,216.33
2023-05-10T11:18:32.493Z,213.08
2023-05-10T11:19:32.485Z,221.77
2023-05-10T11:20:32.464Z,220.69
2023-05-10T11:21:32.531Z,225.73
2023-05-10T11:22:32.728Z,226.62
2023-05-10T11:23:32.456Z,226.08
2023-05-10T11:24:32.502Z,225.43
2023-05-10T11:25:32.510Z,227.56
2023-05-10T11:26:32.522Z,231.44
2023-05-10T11:27:32.541Z,232.61
2023-05-10T11:28:32.560Z,230.53
2023-05-10T11:29:32.605Z,227.40
2023-05-10T11:30:32.622Z,230.38
2023-05-10T11:31:32.615Z,231.06
2023-05-10T11:32:32.707Z,231.54
2023-05-10T11:33:32.664Z,232.26
2023-05-10T11:34:32.659Z,232.00
2023-05-10T11:35:32.669Z,230.55
2023-05-10T11:36:32.689Z,229.71
2023-05-10T11:37:32.709Z,232.19
2023-05-10T11:38:32.737Z,235.90
2023-05-10T11:39:32.757Z,235.89
2023-05-10T11:40:32.798Z,231.29
2023-05-10T11:41:32.792Z,230.36
2023-05-10T11:42:32.794Z,233.59
2023-05-10T11:43:33.052Z,230.14
2023-05-10T11:44:32.874Z,229.07
2023-05-10T11:45:32.849Z,231.71
2023-05-10T11:46:33.135Z,231.63
2023-05-10T11:47:32.912Z,232.51
2023-05-10T11:48:32.867Z,232.73
2023-05-10T11:49:32.880Z,230.13
2023-05-10T11:50:32.892Z,236.37
2023-05-10T11:51:32.911Z,242.44
2023-05-10T11:52:32.923Z,241.54
2023-05-10T11:53:32.958Z,228.92
2023-05-10T11:54:32.967Z,203.73
2023-05-10T11:55:33.023Z,185.82
2023-05-10T11:56:33.070Z,184.89
2023-05-10T11:57:33.084Z,187.80
2023-05-10T11:58:33.557Z,191.91
2023-05-10T11:59:33.139Z,207.55
2023-05-10T12:00:33.182Z,217.62
2023-05-10T12:01:33.214Z,223.20
2023-05-10T12:02:33.310Z,228.95
2023-05-10T12:03:33.531Z,232.85
2023-05-10T12:04:33.430Z,236.29
2023-05-10T12:05:33.389Z,234.20
2023-05-10T12:06:33.616Z,232.75
2023-05-10T12:07:33.375Z,231.12
2023-05-10T12:08:33.460Z,225.17
2023-05-10T12:09:43.388Z,225.68
2023-05-10T12:10:33.448Z,225.96
2023-05-10T12:11:33.562Z,226.47
2023-05-10T12:12:33.434Z,226.71
2023-05-10T12:13:33.379Z,226.53
2023-05-10T12:14:33.367Z,226.51
2023-05-10T12:15:33.364Z,223.80
2023-05-10T12:16:33.426Z,223.74
2023-05-10T12:17:33.614Z,225.13
2023-05-10T12:18:33.339Z,223.40
2023-05-10T12:19:33.297Z,220.93
2023-05-10T12:20:33.289Z,220.92
2023-05-10T12:21:33.283Z,221.50
2023-05-10T12:22:33.284Z,219.31
2023-05-10T12:23:33.298Z,218.45
2023-05-10T12:24:36.461Z,219.81
2023-05-10T12:25:33.366Z,219.96
2023-05-10T12:26:34.250Z,219.99
2023-05-10T12:27:33.311Z,220.09
2023-05-10T12:28:33.272Z,220.94
2023-05-10T12:29:33.230Z,219.89
2023-05-10T12:30:33.226Z,220.05
2023-05-10T12:31:33.259Z,220.21
2023-05-10T12:32:33.231Z,221.92
2023-05-10T12:33:33.203Z,220.24
2023-05-10T12:34:33.204Z,219.64
2023-05-10T12:35:33.180Z,216.91
2023-05-10T12:36:33.554Z,215.17
2023-05-10T12:37:33.165Z,214.86
2023-05-10T12:38:33.172Z,213.28
2023-05-10T12:39:33.556Z,215.21
2023-05-10T12:40:33.172Z,212.94
2023-05-10T12:41:33.135Z,215.37
2023-05-10T12:42:33.172Z,216.78
2023-05-10T12:43:33.197Z,218.31